METAR AND TAF INFORMATION
METAR FOR DNAA
ADDS - METARS form results

(0402 UTC 26 February 2020)
Data provider http://aviationweather.gov/metar/data/
 
Forecast for: DNAA (ABUJA , NG)
Text: TAF DNAA 252300Z 2600/2706 08005KT 5000 HZ NSC
Forecast period: 0000 UTC 26 February 2020 to 0600 UTC 27 February 2020
Forecast type: FROM: standard forecast or significant change
Winds: from the E (80 degrees) at 6 MPH (5 knots; 2.6 m/s)
Visibility: 3 miles (5 km)
Ceiling: unknown
Clouds: missing
Weather: HZ  (haze)
Text: TEMPO 2606/2610 3000
Forecast period: 0600 to 1000 UTC 26 February 2020
Forecast type: TEMPORARY: The following changes expected for less than half the time period
Visibility: 1.86 miles (2.99 km)
Ceiling: unknown
Clouds: missing
Weather: no significant weather forecast for this period

 AIRPORT MAP

 RUNWAY INFORMATION
Runway 04 Runway length 11842 ft Runway width 197 ft
Runway elevation 1087 ft Runway displaced threshold 0 ft Runway heading 35
Runway 22 Runway length 11842 ft Runway width 197 ft
Runway elevation 1123 ft Runway displaced threshold 0 ft Runway heading 215

 AIRPORT FREQUENCIES
Type APP Name APP Frequency 127.9 MHZ
Type ATIS Name ATIS Frequency 123.9 MHZ
Type TWR Name TWR Frequency 119.8 MHZ

 AIRPORT NEAR NAVIGATION AIDS
Type VOR-DME Name Abuja Frequency 116300 KHZ
Type NDB Name Abuja Frequency 321 KHZ
Type VOR-DME Name Gboko Frequency 115900 KHZ



Powered by Virtual Airlines Manager [v2.6.2]